sensor_id;sensor_type;location;lat;lon;timestamp;P1;durP1;ratioP1;P2;durP2;ratioP2
16506;SDS011;8366;51.020;7.642;2024-02-21T00:00:34;11.43;;;4.50;;
16506;SDS011;8366;51.020;7.642;2024-02-21T00:03:00;10.20;;;4.97;;
16506;SDS011;8366;51.020;7.642;2024-02-21T00:05:29;13.27;;;4.67;;
16506;SDS011;8366;51.020;7.642;2024-02-21T00:07:55;8.20;;;4.27;;
16506;SDS011;8366;51.020;7.642;2024-02-21T00:10:25;9.37;;;4.40;;
16506;SDS011;8366;51.020;7.642;2024-02-21T00:12:52;9.70;;;4.37;;
16506;SDS011;8366;51.020;7.642;2024-02-21T00:15:18;12.47;;;4.73;;
16506;SDS011;8366;51.020;7.642;2024-02-21T00:17:45;12.30;;;5.03;;
16506;SDS011;8366;51.020;7.642;2024-02-21T00:20:11;10.43;;;4.93;;
16506;SDS011;8366;51.020;7.642;2024-02-21T00:22:38;12.77;;;5.00;;
16506;SDS011;8366;51.020;7.642;2024-02-21T00:25:04;9.07;;;4.30;;
16506;SDS011;8366;51.020;7.642;2024-02-21T00:27:33;14.03;;;5.30;;
16506;SDS011;8366;51.020;7.642;2024-02-21T00:30:00;13.13;;;5.40;;
16506;SDS011;8366;51.020;7.642;2024-02-21T00:32:26;11.90;;;5.10;;
16506;SDS011;8366;51.020;7.642;2024-02-21T00:34:53;9.03;;;4.67;;
16506;SDS011;8366;51.020;7.642;2024-02-21T00:37:19;12.23;;;5.07;;
16506;SDS011;8366;51.020;7.642;2024-02-21T00:39:46;12.90;;;5.30;;
16506;SDS011;8366;51.020;7.642;2024-02-21T00:42:12;11.30;;;5.20;;
16506;SDS011;8366;51.020;7.642;2024-02-21T00:44:40;12.47;;;5.20;;
16506;SDS011;8366;51.020;7.642;2024-02-21T00:47:06;15.23;;;5.50;;
16506;SDS011;8366;51.020;7.642;2024-02-21T00:49:33;13.57;;;5.40;;
16506;SDS011;8366;51.020;7.642;2024-02-21T00:51:59;11.47;;;5.40;;
16506;SDS011;8366;51.020;7.642;2024-02-21T00:54:26;10.93;;;5.07;;
16506;SDS011;8366;51.020;7.642;2024-02-21T00:56:52;10.77;;;5.10;;
16506;SDS011;8366;51.020;7.642;2024-02-21T00:59:19;8.67;;;4.70;;
16506;SDS011;8366;51.020;7.642;2024-02-21T01:01:47;10.30;;;4.90;;
16506;SDS011;8366;51.020;7.642;2024-02-21T01:04:13;10.27;;;4.90;;
16506;SDS011;8366;51.020;7.642;2024-02-21T01:06:40;11.90;;;5.00;;
16506;SDS011;8366;51.020;7.642;2024-02-21T01:09:09;11.07;;;5.00;;
16506;SDS011;8366;51.020;7.642;2024-02-21T01:11:35;13.17;;;5.27;;
16506;SDS011;8366;51.020;7.642;2024-02-21T01:14:02;12.17;;;5.00;;
16506;SDS011;8366;51.020;7.642;2024-02-21T01:16:28;12.10;;;5.10;;
16506;SDS011;8366;51.020;7.642;2024-02-21T01:18:56;14.67;;;5.00;;
16506;SDS011;8366;51.020;7.642;2024-02-21T01:21:22;12.93;;;5.20;;
16506;SDS011;8366;51.020;7.642;2024-02-21T01:23:49;13.17;;;5.37;;
16506;SDS011;8366;51.020;7.642;2024-02-21T01:26:15;13.23;;;5.20;;
16506;SDS011;8366;51.020;7.642;2024-02-21T01:28:43;9.63;;;5.03;;
16506;SDS011;8366;51.020;7.642;2024-02-21T01:31:09;13.63;;;4.90;;
16506;SDS011;8366;51.020;7.642;2024-02-21T01:33:36;10.90;;;5.00;;
16506;SDS011;8366;51.020;7.642;2024-02-21T01:36:05;12.27;;;4.90;;
16506;SDS011;8366;51.020;7.642;2024-02-21T01:38:32;11.00;;;5.70;;
16506;SDS011;8366;51.020;7.642;2024-02-21T01:40:59;12.27;;;5.63;;
16506;SDS011;8366;51.020;7.642;2024-02-21T01:43:25;12.17;;;5.73;;
16506;SDS011;8366;51.020;7.642;2024-02-21T01:45:52;10.20;;;4.63;;
16506;SDS011;8366;51.020;7.642;2024-02-21T01:48:21;12.37;;;5.20;;
16506;SDS011;8366;51.020;7.642;2024-02-21T01:50:48;12.03;;;4.97;;
16506;SDS011;8366;51.020;7.642;2024-02-21T01:53:17;8.87;;;4.50;;
16506;SDS011;8366;51.020;7.642;2024-02-21T01:55:45;12.73;;;5.03;;
16506;SDS011;8366;51.020;7.642;2024-02-21T01:58:13;10.10;;;4.63;;
16506;SDS011;8366;51.020;7.642;2024-02-21T02:00:40;12.57;;;4.73;;
16506;SDS011;8366;51.020;7.642;2024-02-21T02:03:08;12.53;;;4.97;;
16506;SDS011;8366;51.020;7.642;2024-02-21T02:05:41;9.63;;;4.73;;
16506;SDS011;8366;51.020;7.642;2024-02-21T02:08:08;12.67;;;4.80;;
16506;SDS011;8366;51.020;7.642;2024-02-21T02:10:36;11.80;;;5.17;;
16506;SDS011;8366;51.020;7.642;2024-02-21T02:13:02;14.60;;;4.80;;
16506;SDS011;8366;51.020;7.642;2024-02-21T02:15:37;8.40;;;4.63;;
16506;SDS011;8366;51.020;7.642;2024-02-21T02:18:04;10.20;;;4.87;;
16506;SDS011;8366;51.020;7.642;2024-02-21T02:20:31;11.17;;;4.77;;
16506;SDS011;8366;51.020;7.642;2024-02-21T02:22:57;9.43;;;4.87;;
16506;SDS011;8366;51.020;7.642;2024-02-21T02:25:26;9.93;;;4.63;;
16506;SDS011;8366;51.020;7.642;2024-02-21T02:27:53;10.53;;;5.50;;
16506;SDS011;8366;51.020;7.642;2024-02-21T02:30:20;14.73;;;5.23;;
16506;SDS011;8366;51.020;7.642;2024-02-21T02:32:46;10.73;;;4.60;;
16506;SDS011;8366;51.020;7.642;2024-02-21T02:35:13;10.07;;;5.20;;
16506;SDS011;8366;51.020;7.642;2024-02-21T02:37:39;11.47;;;4.90;;
16506;SDS011;8366;51.020;7.642;2024-02-21T02:40:06;13.23;;;5.13;;
16506;SDS011;8366;51.020;7.642;2024-02-21T02:42:35;10.67;;;4.87;;
16506;SDS011;8366;51.020;7.642;2024-02-21T02:45:01;9.50;;;5.27;;
16506;SDS011;8366;51.020;7.642;2024-02-21T02:47:28;9.90;;;4.90;;
16506;SDS011;8366;51.020;7.642;2024-02-21T02:49:54;9.57;;;4.80;;
16506;SDS011;8366;51.020;7.642;2024-02-21T02:52:21;9.33;;;4.33;;
16506;SDS011;8366;51.020;7.642;2024-02-21T02:54:48;8.63;;;4.57;;
16506;SDS011;8366;51.020;7.642;2024-02-21T02:57:16;10.10;;;4.53;;
16506;SDS011;8366;51.020;7.642;2024-02-21T02:59:48;9.97;;;5.10;;
16506;SDS011;8366;51.020;7.642;2024-02-21T03:02:14;11.17;;;4.80;;
16506;SDS011;8366;51.020;7.642;2024-02-21T03:04:41;14.20;;;4.80;;
16506;SDS011;8366;51.020;7.642;2024-02-21T03:07:07;11.90;;;4.90;;
16506;SDS011;8366;51.020;7.642;2024-02-21T03:09:33;10.77;;;5.03;;
16506;SDS011;8366;51.020;7.642;2024-02-21T03:12:00;12.63;;;4.73;;
16506;SDS011;8366;51.020;7.642;2024-02-21T03:14:28;13.20;;;4.80;;
16506;SDS011;8366;51.020;7.642;2024-02-21T03:16:56;12.13;;;4.70;;
16506;SDS011;8366;51.020;7.642;2024-02-21T03:19:24;13.57;;;4.90;;
16506;SDS011;8366;51.020;7.642;2024-02-21T03:21:50;8.33;;;4.60;;
16506;SDS011;8366;51.020;7.642;2024-02-21T03:24:18;13.27;;;4.83;;
16506;SDS011;8366;51.020;7.642;2024-02-21T03:26:44;12.77;;;4.77;;
16506;SDS011;8366;51.020;7.642;2024-02-21T03:29:12;12.50;;;4.90;;
16506;SDS011;8366;51.020;7.642;2024-02-21T03:31:38;9.83;;;4.67;;
16506;SDS011;8366;51.020;7.642;2024-02-21T03:34:05;11.60;;;4.80;;
16506;SDS011;8366;51.020;7.642;2024-02-21T03:36:32;12.43;;;4.60;;
16506;SDS011;8366;51.020;7.642;2024-02-21T03:38:58;8.90;;;4.33;;
16506;SDS011;8366;51.020;7.642;2024-02-21T03:41:25;9.47;;;4.50;;
16506;SDS011;8366;51.020;7.642;2024-02-21T03:43:52;8.40;;;4.57;;
16506;SDS011;8366;51.020;7.642;2024-02-21T03:46:19;11.07;;;4.57;;
16506;SDS011;8366;51.020;7.642;2024-02-21T03:48:45;14.43;;;4.93;;
16506;SDS011;8366;51.020;7.642;2024-02-21T03:51:13;13.57;;;4.80;;
16506;SDS011;8366;51.020;7.642;2024-02-21T03:53:40;12.53;;;4.50;;
16506;SDS011;8366;51.020;7.642;2024-02-21T03:56:06;12.70;;;4.87;;
16506;SDS011;8366;51.020;7.642;2024-02-21T03:58:33;12.57;;;4.77;;
16506;SDS011;8366;51.020;7.642;2024-02-21T04:01:00;11.43;;;4.60;;
16506;SDS011;8366;51.020;7.642;2024-02-21T04:03:26;10.93;;;4.40;;
16506;SDS011;8366;51.020;7.642;2024-02-21T04:05:53;12.80;;;4.80;;
16506;SDS011;8366;51.020;7.642;2024-02-21T04:08:21;12.50;;;4.10;;
16506;SDS011;8366;51.020;7.642;2024-02-21T04:10:47;10.17;;;4.43;;
16506;SDS011;8366;51.020;7.642;2024-02-21T04:13:14;7.67;;;4.10;;
16506;SDS011;8366;51.020;7.642;2024-02-21T04:15:40;10.17;;;4.50;;
16506;SDS011;8366;51.020;7.642;2024-02-21T04:18:07;12.30;;;4.47;;
16506;SDS011;8366;51.020;7.642;2024-02-21T04:20:33;10.30;;;4.70;;
16506;SDS011;8366;51.020;7.642;2024-02-21T04:23:00;9.70;;;4.17;;
16506;SDS011;8366;51.020;7.642;2024-02-21T04:25:28;9.87;;;4.13;;
16506;SDS011;8366;51.020;7.642;2024-02-21T04:27:54;10.23;;;4.50;;
16506;SDS011;8366;51.020;7.642;2024-02-21T04:30:21;13.37;;;4.73;;
16506;SDS011;8366;51.020;7.642;2024-02-21T04:32:47;12.33;;;4.30;;
16506;SDS011;8366;51.020;7.642;2024-02-21T04:35:14;10.53;;;4.33;;
16506;SDS011;8366;51.020;7.642;2024-02-21T04:37:41;9.87;;;4.40;;
16506;SDS011;8366;51.020;7.642;2024-02-21T04:40:08;11.37;;;5.00;;
16506;SDS011;8366;51.020;7.642;2024-02-21T04:42:36;10.43;;;4.23;;
16506;SDS011;8366;51.020;7.642;2024-02-21T04:45:03;8.83;;;4.33;;
16506;SDS011;8366;51.020;7.642;2024-02-21T04:47:30;9.53;;;4.33;;
16506;SDS011;8366;51.020;7.642;2024-02-21T04:49:57;9.43;;;4.37;;
16506;SDS011;8366;51.020;7.642;2024-02-21T04:52:23;9.50;;;4.03;;
16506;SDS011;8366;51.020;7.642;2024-02-21T04:54:50;9.20;;;4.03;;
16506;SDS011;8366;51.020;7.642;2024-02-21T04:57:17;8.50;;;3.97;;
16506;SDS011;8366;51.020;7.642;2024-02-21T04:59:44;10.53;;;4.00;;
16506;SDS011;8366;51.020;7.642;2024-02-21T05:02:12;11.63;;;4.07;;
16506;SDS011;8366;51.020;7.642;2024-02-21T05:04:39;10.00;;;4.23;;
16506;SDS011;8366;51.020;7.642;2024-02-21T05:07:06;8.87;;;4.20;;
16506;SDS011;8366;51.020;7.642;2024-02-21T05:09:33;10.73;;;4.07;;
16506;SDS011;8366;51.020;7.642;2024-02-21T05:11:59;10.30;;;4.43;;
16506;SDS011;8366;51.020;7.642;2024-02-21T05:14:26;9.57;;;4.40;;
16506;SDS011;8366;51.020;7.642;2024-02-21T05:16:54;8.60;;;4.30;;
16506;SDS011;8366;51.020;7.642;2024-02-21T05:19:21;9.30;;;3.90;;
16506;SDS011;8366;51.020;7.642;2024-02-21T05:21:47;11.07;;;4.37;;
16506;SDS011;8366;51.020;7.642;2024-02-21T05:24:14;9.47;;;4.13;;
16506;SDS011;8366;51.020;7.642;2024-02-21T05:26:40;13.03;;;4.10;;
16506;SDS011;8366;51.020;7.642;2024-02-21T05:29:07;8.57;;;4.07;;
16506;SDS011;8366;51.020;7.642;2024-02-21T05:31:42;8.73;;;4.00;;
16506;SDS011;8366;51.020;7.642;2024-02-21T05:34:22;8.53;;;3.90;;
16506;SDS011;8366;51.020;7.642;2024-02-21T05:36:48;10.43;;;3.87;;
16506;SDS011;8366;51.020;7.642;2024-02-21T05:39:15;9.63;;;4.20;;
16506;SDS011;8366;51.020;7.642;2024-02-21T05:41:43;10.93;;;4.13;;
16506;SDS011;8366;51.020;7.642;2024-02-21T05:44:10;8.50;;;4.20;;
16506;SDS011;8366;51.020;7.642;2024-02-21T05:46:36;8.50;;;4.37;;
16506;SDS011;8366;51.020;7.642;2024-02-21T05:49:03;10.00;;;4.17;;
16506;SDS011;8366;51.020;7.642;2024-02-21T05:51:33;13.77;;;4.30;;
16506;SDS011;8366;51.020;7.642;2024-02-21T05:54:00;10.97;;;4.30;;
16506;SDS011;8366;51.020;7.642;2024-02-21T05:56:26;11.17;;;4.27;;
16506;SDS011;8366;51.020;7.642;2024-02-21T05:58:53;10.50;;;3.67;;
16506;SDS011;8366;51.020;7.642;2024-02-21T06:01:19;11.10;;;4.33;;
16506;SDS011;8366;51.020;7.642;2024-02-21T06:03:47;11.20;;;4.23;;
16506;SDS011;8366;51.020;7.642;2024-02-21T06:06:13;13.27;;;4.10;;
16506;SDS011;8366;51.020;7.642;2024-02-21T06:08:42;10.30;;;3.90;;
16506;SDS011;8366;51.020;7.642;2024-02-21T06:11:08;10.70;;;4.60;;
16506;SDS011;8366;51.020;7.642;2024-02-21T06:13:37;9.17;;;4.07;;
16506;SDS011;8366;51.020;7.642;2024-02-21T06:16:05;14.20;;;4.60;;
16506;SDS011;8366;51.020;7.642;2024-02-21T06:18:32;11.67;;;3.87;;
16506;SDS011;8366;51.020;7.642;2024-02-21T06:21:01;11.07;;;4.30;;
16506;SDS011;8366;51.020;7.642;2024-02-21T06:23:27;9.87;;;4.00;;
16506;SDS011;8366;51.020;7.642;2024-02-21T06:25:55;11.00;;;3.70;;
16506;SDS011;8366;51.020;7.642;2024-02-21T06:28:22;8.87;;;3.43;;
16506;SDS011;8366;51.020;7.642;2024-02-21T06:30:48;8.93;;;3.70;;
16506;SDS011;8366;51.020;7.642;2024-02-21T06:33:15;9.23;;;3.63;;
16506;SDS011;8366;51.020;7.642;2024-02-21T06:35:41;10.60;;;4.20;;
16506;SDS011;8366;51.020;7.642;2024-02-21T06:38:10;13.40;;;4.40;;
16506;SDS011;8366;51.020;7.642;2024-02-21T06:40:37;12.50;;;4.07;;
16506;SDS011;8366;51.020;7.642;2024-02-21T06:43:06;10.17;;;3.90;;
16506;SDS011;8366;51.020;7.642;2024-02-21T06:45:33;11.47;;;4.13;;
16506;SDS011;8366;51.020;7.642;2024-02-21T06:47:59;9.20;;;3.47;;
16506;SDS011;8366;51.020;7.642;2024-02-21T06:50:26;11.43;;;4.00;;
16506;SDS011;8366;51.020;7.642;2024-02-21T06:52:52;7.27;;;3.57;;
16506;SDS011;8366;51.020;7.642;2024-02-21T06:55:19;12.23;;;3.70;;
16506;SDS011;8366;51.020;7.642;2024-02-21T06:57:45;8.80;;;3.90;;
16506;SDS011;8366;51.020;7.642;2024-02-21T07:00:15;9.57;;;3.67;;
16506;SDS011;8366;51.020;7.642;2024-02-21T07:02:42;18.20;;;4.33;;
16506;SDS011;8366;51.020;7.642;2024-02-21T07:05:09;16.77;;;4.13;;
16506;SDS011;8366;51.020;7.642;2024-02-21T07:07:35;9.23;;;3.80;;
16506;SDS011;8366;51.020;7.642;2024-02-21T07:10:02;9.77;;;4.20;;
16506;SDS011;8366;51.020;7.642;2024-02-21T07:12:29;9.97;;;3.50;;
16506;SDS011;8366;51.020;7.642;2024-02-21T07:14:56;8.70;;;3.53;;
16506;SDS011;8366;51.020;7.642;2024-02-21T07:17:23;10.73;;;4.20;;
16506;SDS011;8366;51.020;7.642;2024-02-21T07:19:50;7.80;;;3.50;;
16506;SDS011;8366;51.020;7.642;2024-02-21T07:22:16;9.63;;;3.47;;
16506;SDS011;8366;51.020;7.642;2024-02-21T07:24:43;9.53;;;3.63;;
16506;SDS011;8366;51.020;7.642;2024-02-21T07:27:09;8.40;;;3.40;;
16506;SDS011;8366;51.020;7.642;2024-02-21T07:29:36;9.30;;;3.77;;
16506;SDS011;8366;51.020;7.642;2024-02-21T07:32:03;10.83;;;3.83;;
16506;SDS011;8366;51.020;7.642;2024-02-21T07:34:31;8.60;;;3.37;;
16506;SDS011;8366;51.020;7.642;2024-02-21T07:36:57;10.17;;;3.50;;
16506;SDS011;8366;51.020;7.642;2024-02-21T07:39:24;8.80;;;4.07;;
16506;SDS011;8366;51.020;7.642;2024-02-21T07:41:50;9.90;;;3.57;;
16506;SDS011;8366;51.020;7.642;2024-02-21T07:44:17;9.00;;;3.77;;
16506;SDS011;8366;51.020;7.642;2024-02-21T07:46:43;9.93;;;3.57;;
16506;SDS011;8366;51.020;7.642;2024-02-21T07:49:10;14.13;;;3.90;;
16506;SDS011;8366;51.020;7.642;2024-02-21T07:51:38;8.90;;;3.00;;
16506;SDS011;8366;51.020;7.642;2024-02-21T07:54:04;9.40;;;3.90;;
16506;SDS011;8366;51.020;7.642;2024-02-21T07:56:31;11.80;;;3.57;;
16506;SDS011;8366;51.020;7.642;2024-02-21T07:58:57;8.60;;;3.77;;
16506;SDS011;8366;51.020;7.642;2024-02-21T08:01:24;6.53;;;3.20;;
16506;SDS011;8366;51.020;7.642;2024-02-21T08:03:51;8.10;;;3.03;;
16506;SDS011;8366;51.020;7.642;2024-02-21T08:06:17;8.93;;;3.77;;
16506;SDS011;8366;51.020;7.642;2024-02-21T08:08:45;9.30;;;3.40;;
16506;SDS011;8366;51.020;7.642;2024-02-21T08:11:12;7.37;;;3.27;;
16506;SDS011;8366;51.020;7.642;2024-02-21T08:13:38;9.07;;;3.63;;
16506;SDS011;8366;51.020;7.642;2024-02-21T08:16:05;7.40;;;3.30;;
16506;SDS011;8366;51.020;7.642;2024-02-21T08:18:32;9.10;;;3.33;;
16506;SDS011;8366;51.020;7.642;2024-02-21T08:21:01;6.97;;;3.10;;
16506;SDS011;8366;51.020;7.642;2024-02-21T08:23:28;10.20;;;3.63;;
16506;SDS011;8366;51.020;7.642;2024-02-21T08:25:56;10.90;;;3.33;;
16506;SDS011;8366;51.020;7.642;2024-02-21T08:28:22;7.73;;;3.40;;
16506;SDS011;8366;51.020;7.642;2024-02-21T08:30:50;9.47;;;3.50;;
16506;SDS011;8366;51.020;7.642;2024-02-21T08:33:16;8.17;;;3.27;;
16506;SDS011;8366;51.020;7.642;2024-02-21T08:35:44;11.87;;;3.70;;
16506;SDS011;8366;51.020;7.642;2024-02-21T08:38:10;7.83;;;3.27;;
16506;SDS011;8366;51.020;7.642;2024-02-21T08:40:37;10.33;;;3.30;;
16506;SDS011;8366;51.020;7.642;2024-02-21T08:43:04;9.17;;;3.23;;
16506;SDS011;8366;51.020;7.642;2024-02-21T08:45:31;8.80;;;4.20;;
16506;SDS011;8366;51.020;7.642;2024-02-21T08:47:58;9.97;;;3.60;;
16506;SDS011;8366;51.020;7.642;2024-02-21T08:50:24;9.30;;;4.13;;
16506;SDS011;8366;51.020;7.642;2024-02-21T08:52:51;10.97;;;3.47;;
16506;SDS011;8366;51.020;7.642;2024-02-21T08:55:17;11.80;;;4.50;;
16506;SDS011;8366;51.020;7.642;2024-02-21T08:57:44;19.37;;;5.50;;
16506;SDS011;8366;51.020;7.642;2024-02-21T09:00:13;8.20;;;3.73;;
16506;SDS011;8366;51.020;7.642;2024-02-21T09:02:40;8.73;;;3.37;;
16506;SDS011;8366;51.020;7.642;2024-02-21T09:05:08;9.33;;;3.80;;
16506;SDS011;8366;51.020;7.642;2024-02-21T09:07:34;13.57;;;5.13;;
16506;SDS011;8366;51.020;7.642;2024-02-21T09:10:01;11.70;;;4.73;;
16506;SDS011;8366;51.020;7.642;2024-02-21T09:12:28;11.27;;;4.80;;
16506;SDS011;8366;51.020;7.642;2024-02-21T09:14:54;23.33;;;5.70;;
16506;SDS011;8366;51.020;7.642;2024-02-21T09:17:22;11.73;;;4.10;;
16506;SDS011;8366;51.020;7.642;2024-02-21T09:19:50;14.13;;;4.30;;
16506;SDS011;8366;51.020;7.642;2024-02-21T09:22:17;12.00;;;4.33;;
16506;SDS011;8366;51.020;7.642;2024-02-21T09:24:43;10.73;;;3.83;;
16506;SDS011;8366;51.020;7.642;2024-02-21T09:27:10;12.03;;;4.50;;
16506;SDS011;8366;51.020;7.642;2024-02-21T09:29:37;9.73;;;3.93;;
16506;SDS011;8366;51.020;7.642;2024-02-21T09:32:04;8.40;;;4.10;;
16506;SDS011;8366;51.020;7.642;2024-02-21T09:34:33;11.57;;;4.07;;
16506;SDS011;8366;51.020;7.642;2024-02-21T09:37:00;8.73;;;3.70;;
16506;SDS011;8366;51.020;7.642;2024-02-21T09:39:26;9.37;;;4.00;;
16506;SDS011;8366;51.020;7.642;2024-02-21T09:41:53;9.60;;;3.87;;
16506;SDS011;8366;51.020;7.642;2024-02-21T09:44:25;9.03;;;3.90;;
16506;SDS011;8366;51.020;7.642;2024-02-21T09:47:01;8.07;;;4.03;;
16506;SDS011;8366;51.020;7.642;2024-02-21T09:49:29;9.33;;;3.83;;
16506;SDS011;8366;51.020;7.642;2024-02-21T09:51:58;12.67;;;4.40;;
16506;SDS011;8366;51.020;7.642;2024-02-21T09:54:27;9.47;;;4.07;;
16506;SDS011;8366;51.020;7.642;2024-02-21T09:56:54;10.53;;;4.27;;
16506;SDS011;8366;51.020;7.642;2024-02-21T09:59:21;12.80;;;4.30;;
16506;SDS011;8366;51.020;7.642;2024-02-21T10:01:49;9.63;;;4.10;;
16506;SDS011;8366;51.020;7.642;2024-02-21T10:04:16;14.33;;;4.17;;
16506;SDS011;8366;51.020;7.642;2024-02-21T10:06:43;12.00;;;4.17;;
16506;SDS011;8366;51.020;7.642;2024-02-21T10:09:20;10.80;;;4.97;;
16506;SDS011;8366;51.020;7.642;2024-02-21T10:11:48;11.43;;;4.40;;
16506;SDS011;8366;51.020;7.642;2024-02-21T10:14:15;8.63;;;4.17;;
16506;SDS011;8366;51.020;7.642;2024-02-21T10:16:42;10.67;;;3.97;;
16506;SDS011;8366;51.020;7.642;2024-02-21T10:19:15;10.17;;;4.40;;
16506;SDS011;8366;51.020;7.642;2024-02-21T10:21:42;9.37;;;4.00;;
16506;SDS011;8366;51.020;7.642;2024-02-21T10:24:11;12.73;;;4.57;;
16506;SDS011;8366;51.020;7.642;2024-02-21T10:26:40;14.27;;;4.40;;
16506;SDS011;8366;51.020;7.642;2024-02-21T10:29:06;9.60;;;3.87;;
16506;SDS011;8366;51.020;7.642;2024-02-21T10:31:32;11.80;;;4.20;;
16506;SDS011;8366;51.020;7.642;2024-02-21T10:33:59;14.63;;;4.13;;
16506;SDS011;8366;51.020;7.642;2024-02-21T10:36:28;11.43;;;4.23;;
16506;SDS011;8366;51.020;7.642;2024-02-21T10:38:55;12.33;;;4.67;;
16506;SDS011;8366;51.020;7.642;2024-02-21T10:41:22;8.57;;;4.10;;
16506;SDS011;8366;51.020;7.642;2024-02-21T10:43:51;10.90;;;4.10;;
16506;SDS011;8366;51.020;7.642;2024-02-21T10:46:20;26.07;;;5.67;;
16506;SDS011;8366;51.020;7.642;2024-02-21T10:48:47;8.77;;;3.90;;
16506;SDS011;8366;51.020;7.642;2024-02-21T10:51:18;10.07;;;4.07;;
16506;SDS011;8366;51.020;7.642;2024-02-21T10:53:47;12.40;;;3.87;;
16506;SDS011;8366;51.020;7.642;2024-02-21T10:56:21;8.93;;;4.17;;
16506;SDS011;8366;51.020;7.642;2024-02-21T10:58:50;7.43;;;3.60;;
16506;SDS011;8366;51.020;7.642;2024-02-21T11:01:20;9.47;;;3.60;;
16506;SDS011;8366;51.020;7.642;2024-02-21T11:03:47;7.47;;;3.83;;
16506;SDS011;8366;51.020;7.642;2024-02-21T11:06:16;8.47;;;3.53;;
16506;SDS011;8366;51.020;7.642;2024-02-21T11:08:43;7.03;;;3.70;;
16506;SDS011;8366;51.020;7.642;2024-02-21T11:11:12;11.47;;;4.10;;
16506;SDS011;8366;51.020;7.642;2024-02-21T11:13:42;11.23;;;4.23;;
16506;SDS011;8366;51.020;7.642;2024-02-21T11:16:20;11.47;;;4.50;;
16506;SDS011;8366;51.020;7.642;2024-02-21T11:18:48;11.23;;;4.10;;
16506;SDS011;8366;51.020;7.642;2024-02-21T11:21:15;13.03;;;5.43;;
16506;SDS011;8366;51.020;7.642;2024-02-21T11:23:41;14.73;;;4.37;;
16506;SDS011;8366;51.020;7.642;2024-02-21T11:26:08;10.97;;;4.00;;
16506;SDS011;8366;51.020;7.642;2024-02-21T11:28:35;9.00;;;3.73;;
16506;SDS011;8366;51.020;7.642;2024-02-21T11:31:09;8.67;;;3.80;;
16506;SDS011;8366;51.020;7.642;2024-02-21T11:33:39;9.67;;;3.50;;
16506;SDS011;8366;51.020;7.642;2024-02-21T11:36:07;9.57;;;3.67;;
16506;SDS011;8366;51.020;7.642;2024-02-21T11:38:34;7.47;;;3.73;;
16506;SDS011;8366;51.020;7.642;2024-02-21T11:41:00;9.83;;;3.83;;
16506;SDS011;8366;51.020;7.642;2024-02-21T11:43:27;13.17;;;4.20;;
16506;SDS011;8366;51.020;7.642;2024-02-21T11:45:58;9.00;;;4.07;;
16506;SDS011;8366;51.020;7.642;2024-02-21T11:48:27;10.97;;;4.73;;
16506;SDS011;8366;51.020;7.642;2024-02-21T11:50:54;11.33;;;3.80;;
16506;SDS011;8366;51.020;7.642;2024-02-21T11:53:21;9.60;;;4.43;;
16506;SDS011;8366;51.020;7.642;2024-02-21T11:55:48;9.90;;;4.20;;
16506;SDS011;8366;51.020;7.642;2024-02-21T11:58:15;11.83;;;4.27;;
16506;SDS011;8366;51.020;7.642;2024-02-21T12:00:45;11.37;;;5.43;;
16506;SDS011;8366;51.020;7.642;2024-02-21T12:03:12;10.83;;;4.90;;
16506;SDS011;8366;51.020;7.642;2024-02-21T12:05:40;7.67;;;4.23;;
16506;SDS011;8366;51.020;7.642;2024-02-21T12:08:07;11.63;;;4.53;;
16506;SDS011;8366;51.020;7.642;2024-02-21T12:10:33;11.33;;;4.63;;
16506;SDS011;8366;51.020;7.642;2024-02-21T12:13:06;9.17;;;4.13;;
16506;SDS011;8366;51.020;7.642;2024-02-21T12:15:34;10.25;;;4.85;;
16506;SDS011;8366;51.020;7.642;2024-02-21T12:18:00;11.77;;;4.33;;
16506;SDS011;8366;51.020;7.642;2024-02-21T12:20:27;7.93;;;4.70;;
16506;SDS011;8366;51.020;7.642;2024-02-21T12:22:55;9.57;;;4.97;;
16506;SDS011;8366;51.020;7.642;2024-02-21T12:25:23;9.17;;;4.23;;
16506;SDS011;8366;51.020;7.642;2024-02-21T12:27:51;15.00;;;4.80;;
16506;SDS011;8366;51.020;7.642;2024-02-21T12:30:18;10.43;;;4.20;;
16506;SDS011;8366;51.020;7.642;2024-02-21T12:32:46;9.97;;;4.87;;
16506;SDS011;8366;51.020;7.642;2024-02-21T12:35:13;5.63;;;3.63;;
16506;SDS011;8366;51.020;7.642;2024-02-21T12:37:40;10.30;;;4.30;;
16506;SDS011;8366;51.020;7.642;2024-02-21T12:40:08;9.30;;;4.40;;
16506;SDS011;8366;51.020;7.642;2024-02-21T12:42:38;7.20;;;3.70;;
16506;SDS011;8366;51.020;7.642;2024-02-21T12:45:05;8.00;;;3.73;;
16506;SDS011;8366;51.020;7.642;2024-02-21T12:47:32;13.60;;;4.10;;
16506;SDS011;8366;51.020;7.642;2024-02-21T12:49:59;12.50;;;4.60;;
16506;SDS011;8366;51.020;7.642;2024-02-21T12:52:26;7.43;;;4.10;;
16506;SDS011;8366;51.020;7.642;2024-02-21T12:54:53;10.40;;;4.00;;
16506;SDS011;8366;51.020;7.642;2024-02-21T12:57:23;10.23;;;4.57;;
16506;SDS011;8366;51.020;7.642;2024-02-21T12:59:49;10.67;;;4.50;;
16506;SDS011;8366;51.020;7.642;2024-02-21T13:02:16;11.00;;;3.90;;
16506;SDS011;8366;51.020;7.642;2024-02-21T13:04:57;11.33;;;4.00;;
16506;SDS011;8366;51.020;7.642;2024-02-21T13:07:25;10.57;;;4.23;;
16506;SDS011;8366;51.020;7.642;2024-02-21T13:09:52;8.83;;;3.60;;
16506;SDS011;8366;51.020;7.642;2024-02-21T13:12:19;8.00;;;3.70;;
16506;SDS011;8366;51.020;7.642;2024-02-21T13:14:48;7.87;;;3.80;;
16506;SDS011;8366;51.020;7.642;2024-02-21T13:17:15;9.40;;;3.77;;
16506;SDS011;8366;51.020;7.642;2024-02-21T13:19:41;12.67;;;4.03;;
16506;SDS011;8366;51.020;7.642;2024-02-21T13:22:08;7.57;;;3.43;;
16506;SDS011;8366;51.020;7.642;2024-02-21T13:24:34;8.88;;;3.17;;
16506;SDS011;8366;51.020;7.642;2024-02-21T13:27:01;9.10;;;3.73;;
16506;SDS011;8366;51.020;7.642;2024-02-21T13:29:28;9.87;;;3.80;;
16506;SDS011;8366;51.020;7.642;2024-02-21T13:31:56;9.00;;;3.80;;
16506;SDS011;8366;51.020;7.642;2024-02-21T13:34:22;10.03;;;3.47;;
16506;SDS011;8366;51.020;7.642;2024-02-21T13:36:50;11.23;;;3.57;;
16506;SDS011;8366;51.020;7.642;2024-02-21T13:39:17;7.57;;;3.65;;
16506;SDS011;8366;51.020;7.642;2024-02-21T13:41:44;6.70;;;3.33;;
16506;SDS011;8366;51.020;7.642;2024-02-21T13:44:11;4.82;;;2.83;;
16506;SDS011;8366;51.020;7.642;2024-02-21T13:46:38;6.47;;;3.35;;
16506;SDS011;8366;51.020;7.642;2024-02-21T13:49:06;9.60;;;3.37;;
16506;SDS011;8366;51.020;7.642;2024-02-21T13:51:33;7.00;;;3.25;;
16506;SDS011;8366;51.020;7.642;2024-02-21T13:54:01;11.07;;;3.47;;
16506;SDS011;8366;51.020;7.642;2024-02-21T13:56:27;10.20;;;3.63;;
16506;SDS011;8366;51.020;7.642;2024-02-21T13:58:54;8.53;;;3.40;;
16506;SDS011;8366;51.020;7.642;2024-02-21T14:01:21;12.10;;;3.43;;
16506;SDS011;8366;51.020;7.642;2024-02-21T14:03:48;7.53;;;3.00;;
16506;SDS011;8366;51.020;7.642;2024-02-21T14:06:16;10.60;;;3.20;;
16506;SDS011;8366;51.020;7.642;2024-02-21T14:08:42;7.17;;;3.00;;
16506;SDS011;8366;51.020;7.642;2024-02-21T14:11:09;7.50;;;2.90;;
16506;SDS011;8366;51.020;7.642;2024-02-21T14:13:35;7.20;;;2.83;;
16506;SDS011;8366;51.020;7.642;2024-02-21T14:16:02;7.33;;;3.00;;
16506;SDS011;8366;51.020;7.642;2024-02-21T14:18:29;6.07;;;2.70;;
16506;SDS011;8366;51.020;7.642;2024-02-21T14:20:56;8.90;;;3.00;;
16506;SDS011;8366;51.020;7.642;2024-02-21T14:23:24;8.67;;;3.10;;
16506;SDS011;8366;51.020;7.642;2024-02-21T14:25:51;10.73;;;2.72;;
16506;SDS011;8366;51.020;7.642;2024-02-21T14:28:19;5.87;;;2.27;;
16506;SDS011;8366;51.020;7.642;2024-02-21T14:30:47;6.60;;;2.67;;
16506;SDS011;8366;51.020;7.642;2024-02-21T14:33:18;8.63;;;2.83;;
16506;SDS011;8366;51.020;7.642;2024-02-21T14:35:45;12.20;;;2.90;;
16506;SDS011;8366;51.020;7.642;2024-02-21T14:38:11;9.20;;;2.97;;
16506;SDS011;8366;51.020;7.642;2024-02-21T14:40:39;5.57;;;2.30;;
16506;SDS011;8366;51.020;7.642;2024-02-21T14:43:05;9.00;;;2.53;;
16506;SDS011;8366;51.020;7.642;2024-02-21T14:45:33;10.40;;;3.23;;
16506;SDS011;8366;51.020;7.642;2024-02-21T14:48:00;6.82;;;3.42;;
16506;SDS011;8366;51.020;7.642;2024-02-21T14:50:28;7.97;;;3.47;;
16506;SDS011;8366;51.020;7.642;2024-02-21T14:52:55;11.27;;;3.13;;